sensor_id;sensor_type;location;lat;lon;timestamp;P1;durP1;ratioP1;P2;durP2;ratioP2
15202;SDS011;7702;51.046;5.184;2022-11-15T00:01:37;16.23;;;13.83;;
15202;SDS011;7702;51.046;5.184;2022-11-15T00:04:03;18.13;;;14.93;;
15202;SDS011;7702;51.046;5.184;2022-11-15T00:06:30;17.27;;;14.70;;
15202;SDS011;7702;51.046;5.184;2022-11-15T00:08:59;18.47;;;14.80;;
15202;SDS011;7702;51.046;5.184;2022-11-15T00:11:25;16.67;;;14.03;;
15202;SDS011;7702;51.046;5.184;2022-11-15T00:13:54;17.60;;;14.40;;
15202;SDS011;7702;51.046;5.184;2022-11-15T00:16:21;16.40;;;14.13;;
15202;SDS011;7702;51.046;5.184;2022-11-15T00:18:47;16.63;;;13.77;;
15202;SDS011;7702;51.046;5.184;2022-11-15T00:21:12;20.27;;;14.87;;
15202;SDS011;7702;51.046;5.184;2022-11-15T00:23:38;20.80;;;14.97;;
15202;SDS011;7702;51.046;5.184;2022-11-15T00:26:04;18.63;;;14.87;;
15202;SDS011;7702;51.046;5.184;2022-11-15T00:28:30;17.73;;;14.50;;
15202;SDS011;7702;51.046;5.184;2022-11-15T00:31:00;19.17;;;14.03;;
15202;SDS011;7702;51.046;5.184;2022-11-15T00:33:27;18.17;;;14.13;;
15202;SDS011;7702;51.046;5.184;2022-11-15T00:35:52;18.43;;;14.00;;
15202;SDS011;7702;51.046;5.184;2022-11-15T00:38:18;15.73;;;14.13;;
15202;SDS011;7702;51.046;5.184;2022-11-15T00:40:44;16.73;;;13.53;;
15202;SDS011;7702;51.046;5.184;2022-11-15T00:43:09;22.73;;;14.83;;
15202;SDS011;7702;51.046;5.184;2022-11-15T00:45:36;17.00;;;14.10;;
15202;SDS011;7702;51.046;5.184;2022-11-15T00:48:01;16.67;;;13.83;;
15202;SDS011;7702;51.046;5.184;2022-11-15T00:50:27;18.67;;;14.47;;
15202;SDS011;7702;51.046;5.184;2022-11-15T00:52:52;15.63;;;13.90;;
15202;SDS011;7702;51.046;5.184;2022-11-15T00:55:18;17.50;;;13.93;;
15202;SDS011;7702;51.046;5.184;2022-11-15T00:57:45;16.10;;;13.67;;
15202;SDS011;7702;51.046;5.184;2022-11-15T01:00:11;18.43;;;13.83;;
15202;SDS011;7702;51.046;5.184;2022-11-15T01:02:37;16.80;;;14.70;;
15202;SDS011;7702;51.046;5.184;2022-11-15T01:05:03;18.93;;;14.53;;
15202;SDS011;7702;51.046;5.184;2022-11-15T01:07:29;16.23;;;13.50;;
15202;SDS011;7702;51.046;5.184;2022-11-15T01:09:55;18.40;;;14.40;;
15202;SDS011;7702;51.046;5.184;2022-11-15T01:12:21;17.00;;;13.80;;
15202;SDS011;7702;51.046;5.184;2022-11-15T01:14:46;17.53;;;13.40;;
15202;SDS011;7702;51.046;5.184;2022-11-15T01:17:12;18.30;;;14.07;;
15202;SDS011;7702;51.046;5.184;2022-11-15T01:19:37;16.40;;;13.47;;
15202;SDS011;7702;51.046;5.184;2022-11-15T01:22:03;18.07;;;14.40;;
15202;SDS011;7702;51.046;5.184;2022-11-15T01:24:29;16.83;;;13.60;;
15202;SDS011;7702;51.046;5.184;2022-11-15T01:26:55;17.30;;;12.80;;
15202;SDS011;7702;51.046;5.184;2022-11-15T01:29:21;18.83;;;13.47;;
15202;SDS011;7702;51.046;5.184;2022-11-15T01:31:47;18.47;;;14.20;;
15202;SDS011;7702;51.046;5.184;2022-11-15T01:34:12;17.20;;;13.23;;
15202;SDS011;7702;51.046;5.184;2022-11-15T01:36:40;17.10;;;12.77;;
15202;SDS011;7702;51.046;5.184;2022-11-15T01:39:05;16.87;;;14.03;;
15202;SDS011;7702;51.046;5.184;2022-11-15T01:41:32;15.73;;;13.40;;
15202;SDS011;7702;51.046;5.184;2022-11-15T01:47:02;16.10;;;13.10;;
15202;SDS011;7702;51.046;5.184;2022-11-15T01:49:33;16.63;;;12.87;;
15202;SDS011;7702;51.046;5.184;2022-11-15T01:52:02;16.07;;;13.37;;
15202;SDS011;7702;51.046;5.184;2022-11-15T01:54:31;16.93;;;13.27;;
15202;SDS011;7702;51.046;5.184;2022-11-15T01:57:06;15.57;;;13.87;;
15202;SDS011;7702;51.046;5.184;2022-11-15T01:59:34;14.50;;;13.03;;
15202;SDS011;7702;51.046;5.184;2022-11-15T02:02:02;16.43;;;13.70;;
15202;SDS011;7702;51.046;5.184;2022-11-15T02:04:28;17.60;;;13.13;;
15202;SDS011;7702;51.046;5.184;2022-11-15T02:06:57;15.97;;;14.27;;
15202;SDS011;7702;51.046;5.184;2022-11-15T02:09:24;19.43;;;14.67;;
15202;SDS011;7702;51.046;5.184;2022-11-15T02:11:50;16.13;;;12.97;;
15202;SDS011;7702;51.046;5.184;2022-11-15T02:14:18;15.83;;;13.80;;
15202;SDS011;7702;51.046;5.184;2022-11-15T02:22:04;17.23;;;13.43;;
15202;SDS011;7702;51.046;5.184;2022-11-15T02:30:35;16.83;;;13.77;;
15202;SDS011;7702;51.046;5.184;2022-11-15T02:41:10;15.90;;;13.73;;
15202;SDS011;7702;51.046;5.184;2022-11-15T02:43:38;18.00;;;15.17;;
15202;SDS011;7702;51.046;5.184;2022-11-15T02:49:12;17.63;;;13.37;;
15202;SDS011;7702;51.046;5.184;2022-11-15T02:51:39;17.00;;;14.83;;
15202;SDS011;7702;51.046;5.184;2022-11-15T02:54:11;18.73;;;14.90;;
15202;SDS011;7702;51.046;5.184;2022-11-15T02:56:39;18.83;;;14.03;;
15202;SDS011;7702;51.046;5.184;2022-11-15T03:09:50;17.70;;;15.60;;
15202;SDS011;7702;51.046;5.184;2022-11-15T03:12:32;20.20;;;16.13;;
15202;SDS011;7702;51.046;5.184;2022-11-15T03:18:07;18.50;;;16.27;;
15202;SDS011;7702;51.046;5.184;2022-11-15T03:20:41;19.10;;;15.90;;
15202;SDS011;7702;51.046;5.184;2022-11-15T03:23:08;21.33;;;16.20;;
15202;SDS011;7702;51.046;5.184;2022-11-15T03:25:38;20.27;;;15.00;;
15202;SDS011;7702;51.046;5.184;2022-11-15T03:28:09;17.53;;;15.17;;
15202;SDS011;7702;51.046;5.184;2022-11-15T03:30:39;19.67;;;15.27;;
15202;SDS011;7702;51.046;5.184;2022-11-15T03:33:07;16.60;;;14.50;;
15202;SDS011;7702;51.046;5.184;2022-11-15T03:35:35;18.77;;;15.63;;
15202;SDS011;7702;51.046;5.184;2022-11-15T03:40:42;17.23;;;14.70;;
15202;SDS011;7702;51.046;5.184;2022-11-15T03:46:10;19.03;;;14.73;;
15202;SDS011;7702;51.046;5.184;2022-11-15T03:48:40;19.30;;;14.60;;
15202;SDS011;7702;51.046;5.184;2022-11-15T03:51:11;19.37;;;15.77;;
15202;SDS011;7702;51.046;5.184;2022-11-15T03:53:38;17.90;;;15.80;;
15202;SDS011;7702;51.046;5.184;2022-11-15T03:56:05;21.57;;;15.77;;
15202;SDS011;7702;51.046;5.184;2022-11-15T03:58:31;19.13;;;15.97;;
15202;SDS011;7702;51.046;5.184;2022-11-15T04:00:57;18.47;;;15.30;;
15202;SDS011;7702;51.046;5.184;2022-11-15T04:03:24;20.27;;;16.60;;
15202;SDS011;7702;51.046;5.184;2022-11-15T04:05:51;22.07;;;16.33;;
15202;SDS011;7702;51.046;5.184;2022-11-15T04:08:16;20.23;;;15.67;;
15202;SDS011;7702;51.046;5.184;2022-11-15T04:10:42;22.03;;;16.90;;
15202;SDS011;7702;51.046;5.184;2022-11-15T04:13:08;21.57;;;16.43;;
15202;SDS011;7702;51.046;5.184;2022-11-15T04:15:34;21.77;;;16.70;;
15202;SDS011;7702;51.046;5.184;2022-11-15T04:18:00;19.70;;;16.63;;
15202;SDS011;7702;51.046;5.184;2022-11-15T04:20:26;20.47;;;16.20;;
15202;SDS011;7702;51.046;5.184;2022-11-15T04:23:14;22.30;;;16.70;;
15202;SDS011;7702;51.046;5.184;2022-11-15T04:26:03;24.03;;;17.10;;
15202;SDS011;7702;51.046;5.184;2022-11-15T04:28:30;21.30;;;16.70;;
15202;SDS011;7702;51.046;5.184;2022-11-15T04:30:56;25.80;;;16.57;;
15202;SDS011;7702;51.046;5.184;2022-11-15T04:33:22;21.77;;;16.63;;
15202;SDS011;7702;51.046;5.184;2022-11-15T04:35:48;24.43;;;17.27;;
15202;SDS011;7702;51.046;5.184;2022-11-15T04:38:33;25.00;;;17.30;;
15202;SDS011;7702;51.046;5.184;2022-11-15T04:40:59;22.17;;;17.03;;
15202;SDS011;7702;51.046;5.184;2022-11-15T04:43:25;25.27;;;17.07;;
15202;SDS011;7702;51.046;5.184;2022-11-15T04:45:52;23.37;;;17.70;;
15202;SDS011;7702;51.046;5.184;2022-11-15T04:48:17;21.47;;;15.97;;
15202;SDS011;7702;51.046;5.184;2022-11-15T04:50:43;21.07;;;16.07;;
15202;SDS011;7702;51.046;5.184;2022-11-15T04:53:09;24.37;;;15.73;;
15202;SDS011;7702;51.046;5.184;2022-11-15T04:55:34;20.43;;;15.50;;
15202;SDS011;7702;51.046;5.184;2022-11-15T04:58:00;17.17;;;14.20;;
15202;SDS011;7702;51.046;5.184;2022-11-15T05:00:27;18.93;;;14.83;;
15202;SDS011;7702;51.046;5.184;2022-11-15T05:02:53;13.77;;;11.43;;
15202;SDS011;7702;51.046;5.184;2022-11-15T05:05:38;13.77;;;9.77;;
15202;SDS011;7702;51.046;5.184;2022-11-15T05:08:03;13.03;;;10.13;;
15202;SDS011;7702;51.046;5.184;2022-11-15T05:10:29;13.90;;;10.93;;
15202;SDS011;7702;51.046;5.184;2022-11-15T05:12:55;16.17;;;11.97;;
15202;SDS011;7702;51.046;5.184;2022-11-15T05:15:20;17.43;;;12.67;;
15202;SDS011;7702;51.046;5.184;2022-11-15T05:17:46;18.17;;;13.40;;
15202;SDS011;7702;51.046;5.184;2022-11-15T05:20:12;17.10;;;11.90;;
15202;SDS011;7702;51.046;5.184;2022-11-15T05:22:38;17.63;;;14.07;;
15202;SDS011;7702;51.046;5.184;2022-11-15T05:25:05;15.20;;;13.43;;
15202;SDS011;7702;51.046;5.184;2022-11-15T05:27:32;17.00;;;13.03;;
15202;SDS011;7702;51.046;5.184;2022-11-15T05:29:58;16.30;;;13.47;;
15202;SDS011;7702;51.046;5.184;2022-11-15T05:32:24;16.13;;;11.73;;
15202;SDS011;7702;51.046;5.184;2022-11-15T05:34:50;17.23;;;12.13;;
15202;SDS011;7702;51.046;5.184;2022-11-15T05:37:16;17.13;;;11.83;;
15202;SDS011;7702;51.046;5.184;2022-11-15T05:39:43;17.87;;;12.00;;
15202;SDS011;7702;51.046;5.184;2022-11-15T05:42:09;13.60;;;11.50;;
15202;SDS011;7702;51.046;5.184;2022-11-15T05:44:39;13.97;;;10.57;;
15202;SDS011;7702;51.046;5.184;2022-11-15T05:47:09;18.07;;;10.87;;
15202;SDS011;7702;51.046;5.184;2022-11-15T05:49:37;12.57;;;10.70;;
15202;SDS011;7702;51.046;5.184;2022-11-15T05:52:07;12.57;;;11.07;;
15202;SDS011;7702;51.046;5.184;2022-11-15T05:54:36;12.07;;;9.50;;
15202;SDS011;7702;51.046;5.184;2022-11-15T05:57:03;14.47;;;9.57;;
15202;SDS011;7702;51.046;5.184;2022-11-15T05:59:30;11.60;;;8.90;;
15202;SDS011;7702;51.046;5.184;2022-11-15T06:01:57;11.03;;;9.30;;
15202;SDS011;7702;51.046;5.184;2022-11-15T06:04:23;14.27;;;9.60;;
15202;SDS011;7702;51.046;5.184;2022-11-15T06:06:50;13.50;;;9.80;;
15202;SDS011;7702;51.046;5.184;2022-11-15T06:09:15;14.57;;;10.17;;
15202;SDS011;7702;51.046;5.184;2022-11-15T06:11:41;11.97;;;9.50;;
15202;SDS011;7702;51.046;5.184;2022-11-15T06:14:06;13.40;;;8.90;;
15202;SDS011;7702;51.046;5.184;2022-11-15T06:16:32;14.40;;;10.00;;
15202;SDS011;7702;51.046;5.184;2022-11-15T06:18:58;13.87;;;9.87;;
15202;SDS011;7702;51.046;5.184;2022-11-15T06:21:24;11.97;;;9.33;;
15202;SDS011;7702;51.046;5.184;2022-11-15T06:23:49;13.47;;;9.67;;
15202;SDS011;7702;51.046;5.184;2022-11-15T06:26:15;13.80;;;10.07;;
15202;SDS011;7702;51.046;5.184;2022-11-15T06:28:40;11.00;;;9.37;;
15202;SDS011;7702;51.046;5.184;2022-11-15T06:31:09;14.00;;;9.67;;
15202;SDS011;7702;51.046;5.184;2022-11-15T06:33:36;12.07;;;9.57;;
15202;SDS011;7702;51.046;5.184;2022-11-15T06:36:06;12.07;;;9.37;;
15202;SDS011;7702;51.046;5.184;2022-11-15T06:38:33;12.53;;;9.60;;
15202;SDS011;7702;51.046;5.184;2022-11-15T06:41:03;10.20;;;9.07;;
15202;SDS011;7702;51.046;5.184;2022-11-15T06:43:31;10.00;;;8.67;;
15202;SDS011;7702;51.046;5.184;2022-11-15T06:46:00;12.83;;;8.97;;
15202;SDS011;7702;51.046;5.184;2022-11-15T06:48:28;13.10;;;9.23;;
15202;SDS011;7702;51.046;5.184;2022-11-15T06:50:55;11.03;;;8.47;;
15202;SDS011;7702;51.046;5.184;2022-11-15T06:53:22;10.97;;;8.43;;
15202;SDS011;7702;51.046;5.184;2022-11-15T06:55:49;11.20;;;8.37;;
15202;SDS011;7702;51.046;5.184;2022-11-15T06:58:15;11.60;;;8.87;;
15202;SDS011;7702;51.046;5.184;2022-11-15T07:00:41;10.93;;;8.23;;
15202;SDS011;7702;51.046;5.184;2022-11-15T07:03:07;11.40;;;8.57;;
15202;SDS011;7702;51.046;5.184;2022-11-15T07:05:33;11.00;;;8.20;;
15202;SDS011;7702;51.046;5.184;2022-11-15T07:07:59;10.77;;;8.77;;
15202;SDS011;7702;51.046;5.184;2022-11-15T07:10:25;11.30;;;8.77;;
15202;SDS011;7702;51.046;5.184;2022-11-15T07:12:52;12.10;;;8.63;;
15202;SDS011;7702;51.046;5.184;2022-11-15T07:15:20;10.80;;;8.03;;
15202;SDS011;7702;51.046;5.184;2022-11-15T07:17:47;9.73;;;8.43;;
15202;SDS011;7702;51.046;5.184;2022-11-15T07:20:12;11.03;;;8.07;;
15202;SDS011;7702;51.046;5.184;2022-11-15T07:22:39;9.07;;;8.03;;
15202;SDS011;7702;51.046;5.184;2022-11-15T07:25:05;12.67;;;7.97;;
15202;SDS011;7702;51.046;5.184;2022-11-15T07:27:32;8.47;;;7.30;;
15202;SDS011;7702;51.046;5.184;2022-11-15T07:29:58;11.63;;;8.10;;
15202;SDS011;7702;51.046;5.184;2022-11-15T07:32:23;11.23;;;8.17;;
15202;SDS011;7702;51.046;5.184;2022-11-15T07:34:49;9.07;;;7.47;;
15202;SDS011;7702;51.046;5.184;2022-11-15T07:37:14;8.80;;;7.53;;
15202;SDS011;7702;51.046;5.184;2022-11-15T07:39:41;9.43;;;7.27;;
15202;SDS011;7702;51.046;5.184;2022-11-15T07:42:07;9.80;;;7.17;;
15202;SDS011;7702;51.046;5.184;2022-11-15T07:44:51;8.63;;;7.27;;
15202;SDS011;7702;51.046;5.184;2022-11-15T07:47:17;9.50;;;6.77;;
15202;SDS011;7702;51.046;5.184;2022-11-15T07:49:43;12.30;;;6.73;;
15202;SDS011;7702;51.046;5.184;2022-11-15T07:52:08;11.07;;;6.87;;
15202;SDS011;7702;51.046;5.184;2022-11-15T07:54:34;8.87;;;6.37;;
15202;SDS011;7702;51.046;5.184;2022-11-15T07:57:00;9.20;;;6.83;;
15202;SDS011;7702;51.046;5.184;2022-11-15T07:59:25;8.10;;;6.67;;
15202;SDS011;7702;51.046;5.184;2022-11-15T08:01:51;6.83;;;6.13;;
15202;SDS011;7702;51.046;5.184;2022-11-15T08:04:17;11.33;;;6.20;;
15202;SDS011;7702;51.046;5.184;2022-11-15T08:06:42;9.30;;;6.37;;
15202;SDS011;7702;51.046;5.184;2022-11-15T08:09:08;8.57;;;6.10;;
15202;SDS011;7702;51.046;5.184;2022-11-15T08:11:34;7.33;;;5.50;;
15202;SDS011;7702;51.046;5.184;2022-11-15T08:13:59;8.40;;;5.90;;
15202;SDS011;7702;51.046;5.184;2022-11-15T08:16:25;6.67;;;5.97;;
15202;SDS011;7702;51.046;5.184;2022-11-15T08:18:51;6.87;;;5.67;;
15202;SDS011;7702;51.046;5.184;2022-11-15T08:21:18;8.33;;;6.27;;
15202;SDS011;7702;51.046;5.184;2022-11-15T08:23:44;6.10;;;5.50;;
15202;SDS011;7702;51.046;5.184;2022-11-15T08:26:10;6.30;;;5.40;;
15202;SDS011;7702;51.046;5.184;2022-11-15T08:28:36;5.83;;;5.23;;
15202;SDS011;7702;51.046;5.184;2022-11-15T08:31:02;9.10;;;5.67;;
15202;SDS011;7702;51.046;5.184;2022-11-15T08:33:29;6.67;;;4.70;;
15202;SDS011;7702;51.046;5.184;2022-11-15T08:35:59;6.60;;;4.87;;
15202;SDS011;7702;51.046;5.184;2022-11-15T08:38:25;5.03;;;4.23;;
15202;SDS011;7702;51.046;5.184;2022-11-15T08:40:53;5.60;;;5.00;;
15202;SDS011;7702;51.046;5.184;2022-11-15T08:43:24;7.17;;;4.50;;
15202;SDS011;7702;51.046;5.184;2022-11-15T08:45:51;5.13;;;3.73;;
15202;SDS011;7702;51.046;5.184;2022-11-15T08:48:16;5.77;;;4.00;;
15202;SDS011;7702;51.046;5.184;2022-11-15T08:50:42;7.90;;;3.50;;
15202;SDS011;7702;51.046;5.184;2022-11-15T08:53:08;4.83;;;3.13;;
15202;SDS011;7702;51.046;5.184;2022-11-15T08:55:37;2.60;;;2.30;;
15202;SDS011;7702;51.046;5.184;2022-11-15T08:58:04;2.93;;;2.27;;
15202;SDS011;7702;51.046;5.184;2022-11-15T09:00:30;3.63;;;2.47;;
15202;SDS011;7702;51.046;5.184;2022-11-15T09:02:56;6.30;;;2.70;;
15202;SDS011;7702;51.046;5.184;2022-11-15T09:05:22;4.97;;;1.97;;
15202;SDS011;7702;51.046;5.184;2022-11-15T09:07:48;5.13;;;1.60;;
15202;SDS011;7702;51.046;5.184;2022-11-15T09:10:19;3.57;;;1.93;;
15202;SDS011;7702;51.046;5.184;2022-11-15T09:12:45;1.97;;;1.70;;
15202;SDS011;7702;51.046;5.184;2022-11-15T09:15:13;2.83;;;1.40;;
15202;SDS011;7702;51.046;5.184;2022-11-15T09:17:39;2.10;;;1.40;;
15202;SDS011;7702;51.046;5.184;2022-11-15T09:20:06;1.80;;;1.33;;
15202;SDS011;7702;51.046;5.184;2022-11-15T09:22:32;2.83;;;1.30;;
15202;SDS011;7702;51.046;5.184;2022-11-15T09:24:58;3.73;;;1.40;;
15202;SDS011;7702;51.046;5.184;2022-11-15T09:27:27;4.70;;;1.20;;
15202;SDS011;7702;51.046;5.184;2022-11-15T09:29:54;2.63;;;1.00;;
15202;SDS011;7702;51.046;5.184;2022-11-15T09:32:20;2.30;;;1.03;;
15202;SDS011;7702;51.046;5.184;2022-11-15T09:34:47;5.53;;;1.13;;
15202;SDS011;7702;51.046;5.184;2022-11-15T09:37:12;4.83;;;1.13;;
15202;SDS011;7702;51.046;5.184;2022-11-15T09:39:38;4.50;;;1.67;;
15202;SDS011;7702;51.046;5.184;2022-11-15T09:50:14;3.33;;;1.20;;
15202;SDS011;7702;51.046;5.184;2022-11-15T09:52:47;3.83;;;1.17;;
15202;SDS011;7702;51.046;5.184;2022-11-15T09:55:14;6.87;;;1.20;;
15202;SDS011;7702;51.046;5.184;2022-11-15T09:58:09;4.93;;;1.30;;
15202;SDS011;7702;51.046;5.184;2022-11-15T10:00:44;5.70;;;1.27;;
15202;SDS011;7702;51.046;5.184;2022-11-15T10:03:14;3.83;;;1.27;;
15202;SDS011;7702;51.046;5.184;2022-11-15T10:05:46;3.93;;;1.37;;
15202;SDS011;7702;51.046;5.184;2022-11-15T10:08:22;1.50;;;1.27;;
15202;SDS011;7702;51.046;5.184;2022-11-15T10:10:57;1.47;;;1.00;;
15202;SDS011;7702;51.046;5.184;2022-11-15T10:13:28;3.13;;;1.13;;
15202;SDS011;7702;51.046;5.184;2022-11-15T10:19:04;6.23;;;1.00;;
15202;SDS011;7702;51.046;5.184;2022-11-15T10:24:11;1.37;;;0.90;;
15202;SDS011;7702;51.046;5.184;2022-11-15T10:26:45;4.30;;;1.10;;
15202;SDS011;7702;51.046;5.184;2022-11-15T10:29:17;4.50;;;1.00;;
15202;SDS011;7702;51.046;5.184;2022-11-15T10:31:43;2.57;;;1.43;;
15202;SDS011;7702;51.046;5.184;2022-11-15T10:34:13;5.73;;;1.37;;
15202;SDS011;7702;51.046;5.184;2022-11-15T10:36:54;2.00;;;0.80;;
15202;SDS011;7702;51.046;5.184;2022-11-15T10:39:21;3.13;;;1.23;;
15202;SDS011;7702;51.046;5.184;2022-11-15T10:41:47;3.87;;;1.00;;
15202;SDS011;7702;51.046;5.184;2022-11-15T10:46:43;4.13;;;1.00;;
15202;SDS011;7702;51.046;5.184;2022-11-15T10:49:30;2.43;;;0.90;;
15202;SDS011;7702;51.046;5.184;2022-11-15T10:52:18;2.00;;;1.07;;
15202;SDS011;7702;51.046;5.184;2022-11-15T10:57:15;5.27;;;1.30;;
15202;SDS011;7702;51.046;5.184;2022-11-15T10:59:53;2.57;;;1.10;;
15202;SDS011;7702;51.046;5.184;2022-11-15T11:02:28;2.77;;;0.90;;
15202;SDS011;7702;51.046;5.184;2022-11-15T11:04:54;3.53;;;1.23;;
15202;SDS011;7702;51.046;5.184;2022-11-15T11:07:22;1.20;;;1.10;;
15202;SDS011;7702;51.046;5.184;2022-11-15T11:10:34;1.30;;;1.07;;
15202;SDS011;7702;51.046;5.184;2022-11-15T11:12:43;4.40;;;1.10;;
15202;SDS011;7702;51.046;5.184;2022-11-15T11:15:10;1.20;;;0.80;;
15202;SDS011;7702;51.046;5.184;2022-11-15T11:20:33;3.33;;;1.60;;
15202;SDS011;7702;51.046;5.184;2022-11-15T11:32:29;2.50;;;1.00;;
15202;SDS011;7702;51.046;5.184;2022-11-15T11:34:41;2.73;;;0.90;;
15202;SDS011;7702;51.046;5.184;2022-11-15T11:37:21;3.23;;;1.10;;
15202;SDS011;7702;51.046;5.184;2022-11-15T11:53:57;4.63;;;0.90;;
15202;SDS011;7702;51.046;5.184;2022-11-15T11:56:28;4.17;;;0.90;;
15202;SDS011;7702;51.046;5.184;2022-11-15T11:59:00;2.43;;;1.20;;
15202;SDS011;7702;51.046;5.184;2022-11-15T12:01:34;4.00;;;1.50;;
15202;SDS011;7702;51.046;5.184;2022-11-15T12:12:42;2.07;;;1.10;;
15202;SDS011;7702;51.046;5.184;2022-11-15T12:17:42;3.50;;;1.00;;
15202;SDS011;7702;51.046;5.184;2022-11-15T12:20:20;1.33;;;0.90;;
15202;SDS011;7702;51.046;5.184;2022-11-15T12:25:45;1.97;;;0.87;;
15202;SDS011;7702;51.046;5.184;2022-11-15T12:33:43;4.13;;;1.03;;
15202;SDS011;7702;51.046;5.184;2022-11-15T12:36:12;2.27;;;1.13;;
15202;SDS011;7702;51.046;5.184;2022-11-15T12:39:15;2.63;;;1.10;;
15202;SDS011;7702;51.046;5.184;2022-11-15T12:41:42;2.63;;;1.03;;
15202;SDS011;7702;51.046;5.184;2022-11-15T12:47:08;5.07;;;0.93;;
15202;SDS011;7702;51.046;5.184;2022-11-15T12:49:48;3.93;;;1.10;;
15202;SDS011;7702;51.046;5.184;2022-11-15T12:52:14;6.60;;;1.27;;
15202;SDS011;7702;51.046;5.184;2022-11-15T12:59:51;4.03;;;1.27;;
15202;SDS011;7702;51.046;5.184;2022-11-15T13:17:38;5.67;;;1.20;;
15202;SDS011;7702;51.046;5.184;2022-11-15T13:20:18;1.50;;;0.80;;
15202;SDS011;7702;51.046;5.184;2022-11-15T13:22:51;3.57;;;1.20;;
15202;SDS011;7702;51.046;5.184;2022-11-15T13:35:46;2.67;;;1.00;;
15202;SDS011;7702;51.046;5.184;2022-11-15T13:38:33;3.40;;;1.10;;
15202;SDS011;7702;51.046;5.184;2022-11-15T13:41:17;2.93;;;1.30;;
15202;SDS011;7702;51.046;5.184;2022-11-15T13:43:45;4.90;;;1.23;;
15202;SDS011;7702;51.046;5.184;2022-11-15T13:46:19;3.57;;;1.40;;
15202;SDS011;7702;51.046;5.184;2022-11-15T13:48:46;2.70;;;1.10;;
15202;SDS011;7702;51.046;5.184;2022-11-15T13:54:16;3.20;;;1.20;;
15202;SDS011;7702;51.046;5.184;2022-11-15T14:02:31;4.43;;;1.20;;
15202;SDS011;7702;51.046;5.184;2022-11-15T14:05:15;4.23;;;1.37;;
15202;SDS011;7702;51.046;5.184;2022-11-15T14:07:53;3.53;;;1.50;;
15202;SDS011;7702;51.046;5.184;2022-11-15T14:10:34;2.50;;;1.20;;
15202;SDS011;7702;51.046;5.184;2022-11-15T14:13:01;2.83;;;1.20;;
15202;SDS011;7702;51.046;5.184;2022-11-15T14:15:33;2.90;;;1.10;;
15202;SDS011;7702;51.046;5.184;2022-11-15T14:18:00;3.30;;;1.40;;
15202;SDS011;7702;51.046;5.184;2022-11-15T14:23:05;2.73;;;;;
15202;SDS011;7702;51.046;5.184;2022-11-15T14:25:54;4.27;;;1.37;;
15202;SDS011;7702;51.046;5.184;2022-11-15T14:30:47;2.90;;;1.20;;
15202;SDS011;7702;51.046;5.184;2022-11-15T14:33:19;1.50;;;1.40;;
15202;SDS011;7702;51.046;5.184;2022-11-15T14:35:47;2.90;;;1.30;;
15202;SDS011;7702;51.046;5.184;2022-11-15T14:38:14;1.73;;;1.30;;
15202;SDS011;7702;51.046;5.184;2022-11-15T14:40:39;3.47;;;1.60;;
15202;SDS011;7702;51.046;5.184;2022-11-15T14:43:07;3.53;;;1.43;;
15202;SDS011;7702;51.046;5.184;2022-11-15T14:45:36;2.53;;;1.70;;
15202;SDS011;7702;51.046;5.184;2022-11-15T14:48:01;1.33;;;1.07;;
15202;SDS011;7702;51.046;5.184;2022-11-15T14:50:27;2.60;;;1.47;;
15202;SDS011;7702;51.046;5.184;2022-11-15T14:52:53;3.27;;;1.67;;
15202;SDS011;7702;51.046;5.184;2022-11-15T14:55:20;4.57;;;1.40;;
15202;SDS011;7702;51.046;5.184;2022-11-15T14:57:54;1.77;;;1.47;;
15202;SDS011;7702;51.046;5.184;2022-11-15T15:00:20;2.53;;;1.67;;
15202;SDS011;7702;51.046;5.184;2022-11-15T15:02:48;2.87;;;1.77;;
15202;SDS011;7702;51.046;5.184;2022-11-15T15:07:45;3.90;;;2.03;;
15202;SDS011;7702;51.046;5.184;2022-11-15T15:10:11;2.07;;;1.77;;
15202;SDS011;7702;51.046;5.184;2022-11-15T15:12:38;2.37;;;1.60;;
15202;SDS011;7702;51.046;5.184;2022-11-15T15:15:04;2.57;;;1.80;;
15202;SDS011;7702;51.046;5.184;2022-11-15T15:17:30;3.17;;;1.60;;
15202;SDS011;7702;51.046;5.184;2022-11-15T15:19:56;4.17;;;1.97;;
15202;SDS011;7702;51.046;5.184;2022-11-15T15:22:21;2.70;;;1.67;;
15202;SDS011;7702;51.046;5.184;2022-11-15T15:24:50;3.20;;;2.07;;
15202;SDS011;7702;51.046;5.184;2022-11-15T15:27:16;3.77;;;3.40;;
15202;SDS011;7702;51.046;5.184;2022-11-15T15:29:42;3.33;;;1.90;;
15202;SDS011;7702;51.046;5.184;2022-11-15T15:32:08;3.10;;;2.00;;
15202;SDS011;7702;51.046;5.184;2022-11-15T15:34:35;3.70;;;2.00;;
15202;SDS011;7702;51.046;5.184;2022-11-15T15:37:21;3.07;;;2.03;;
15202;SDS011;7702;51.046;5.184;2022-11-15T15:39:49;3.23;;;2.10;;
15202;SDS011;7702;51.046;5.184;2022-11-15T15:42:19;3.27;;;2.10;;
15202;SDS011;7702;51.046;5.184;2022-11-15T15:44:46;2.20;;;1.90;;
15202;SDS011;7702;51.046;5.184;2022-11-15T15:47:18;3.27;;;2.53;;
15202;SDS011;7702;51.046;5.184;2022-11-15T15:49:46;4.90;;;2.60;;
15202;SDS011;7702;51.046;5.184;2022-11-15T15:52:12;3.63;;;2.43;;
15202;SDS011;7702;51.046;5.184;2022-11-15T15:54:38;5.80;;;2.63;;
15202;SDS011;7702;51.046;5.184;2022-11-15T15:57:05;5.97;;;2.50;;
15202;SDS011;7702;51.046;5.184;2022-11-15T15:59:31;4.30;;;3.20;;
15202;SDS011;7702;51.046;5.184;2022-11-15T16:01:57;5.33;;;3.67;;
15202;SDS011;7702;51.046;5.184;2022-11-15T16:04:23;4.23;;;3.83;;
15202;SDS011;7702;51.046;5.184;2022-11-15T16:06:49;5.27;;;2.97;;
15202;SDS011;7702;51.046;5.184;2022-11-15T16:09:17;3.63;;;2.90;;
15202;SDS011;7702;51.046;5.184;2022-11-15T16:12:04;5.33;;;3.00;;
15202;SDS011;7702;51.046;5.184;2022-11-15T16:14:30;3.30;;;2.77;;
15202;SDS011;7702;51.046;5.184;2022-11-15T16:16:56;3.87;;;2.90;;
15202;SDS011;7702;51.046;5.184;2022-11-15T16:19:22;5.23;;;2.83;;
15202;SDS011;7702;51.046;5.184;2022-11-15T16:21:48;4.83;;;2.80;;
15202;SDS011;7702;51.046;5.184;2022-11-15T16:24:13;3.83;;;2.87;;
15202;SDS011;7702;51.046;5.184;2022-11-15T16:26:39;5.13;;;3.40;;
15202;SDS011;7702;51.046;5.184;2022-11-15T16:29:05;4.57;;;3.90;;
15202;SDS011;7702;51.046;5.184;2022-11-15T16:31:31;6.60;;;3.40;;
15202;SDS011;7702;51.046;5.184;2022-11-15T16:33:57;3.97;;;3.10;;
15202;SDS011;7702;51.046;5.184;2022-11-15T16:36:24;6.07;;;2.97;;
15202;SDS011;7702;51.046;5.184;2022-11-15T16:38:51;3.73;;;2.97;;
15202;SDS011;7702;51.046;5.184;2022-11-15T16:41:17;3.40;;;2.70;;
15202;SDS011;7702;51.046;5.184;2022-11-15T16:43:47;3.20;;;2.83;;
15202;SDS011;7702;51.046;5.184;2022-11-15T16:46:14;4.47;;;2.80;;
15202;SDS011;7702;51.046;5.184;2022-11-15T16:48:42;3.20;;;2.70;;
15202;SDS011;7702;51.046;5.184;2022-11-15T16:51:08;6.03;;;3.30;;
15202;SDS011;7702;51.046;5.184;2022-11-15T16:53:34;4.03;;;2.67;;
15202;SDS011;7702;51.046;5.184;2022-11-15T16:56:00;4.90;;;3.30;;
15202;SDS011;7702;51.046;5.184;2022-11-15T16:58:25;4.03;;;3.10;;
15202;SDS011;7702;51.046;5.184;2022-11-15T17:00:52;4.93;;;3.57;;
15202;SDS011;7702;51.046;5.184;2022-11-15T17:03:18;5.13;;;3.53;;
15202;SDS011;7702;51.046;5.184;2022-11-15T17:05:45;5.40;;;3.67;;
15202;SDS011;7702;51.046;5.184;2022-11-15T17:08:10;3.83;;;3.43;;
15202;SDS011;7702;51.046;5.184;2022-11-15T17:10:38;4.37;;;3.00;;
15202;SDS011;7702;51.046;5.184;2022-11-15T17:13:11;4.93;;;3.50;;
15202;SDS011;7702;51.046;5.184;2022-11-15T17:15:38;5.70;;;4.10;;
15202;SDS011;7702;51.046;5.184;2022-11-15T17:18:04;5.67;;;4.40;;
15202;SDS011;7702;51.046;5.184;2022-11-15T17:20:30;6.27;;;3.83;;
15202;SDS011;7702;51.046;5.184;2022-11-15T17:22:56;5.33;;;4.73;;
15202;SDS011;7702;51.046;5.184;2022-11-15T17:25:22;6.50;;;4.43;;
15202;SDS011;7702;51.046;5.184;2022-11-15T17:27:48;5.20;;;4.70;;
15202;SDS011;7702;51.046;5.184;2022-11-15T17:30:13;6.50;;;4.43;;
15202;SDS011;7702;51.046;5.184;2022-11-15T17:32:40;5.33;;;4.17;;
15202;SDS011;7702;51.046;5.184;2022-11-15T17:35:07;5.17;;;4.50;;
15202;SDS011;7702;51.046;5.184;2022-11-15T17:37:34;6.50;;;4.17;;